This is the latest recevied weather packets stored in our database for station/object XE2KK-10. If no packets are shown the sender has not sent any weather packets the latest 10 day(s).
| Time | Temp. | Humidity | Pressure | Rain* | Wind** | Luminosity | Snow |
|---|---|---|---|---|---|---|---|
| 1777488853 | 34.44° C | 51% | 1010.7 hPa | 0 mm | - | 745 W/m² | - |
| 1777488552 | 34.44° C | 49% | 1010.8 hPa | 0 mm | - | 753 W/m² | - |
| 1777488252 | 33.89° C | 51% | 1011.2 hPa | 0 mm | - | 774 W/m² | - |
| 1777487953 | 34.44° C | 52% | 1011.1 hPa | 0 mm | - | 782 W/m² | - |
| 1777487653 | 33.89° C | 53% | 1011.3 hPa | 0 mm | - | 787 W/m² | - |
| 1777487353 | 34.44° C | 52% | 1011.3 hPa | 0 mm | - | 831 W/m² | - |
| 1777487053 | 33.89° C | 52% | 1011.6 hPa | 0 mm | - | 838 W/m² | - |
| 1777486752 | 32.78° C | 55% | 1011.6 hPa | 0 mm | - | 858 W/m² | - |
| 1777486452 | 32.78° C | 56% | 1011.5 hPa | 0 mm | - | 686 W/m² | - |
| 1777486153 | 32.78° C | 56% | 1011.5 hPa | 0 mm | - | 505 W/m² | - |
| 1777485853 | 32.78° C | 55% | 1011.7 hPa | 0 mm | - | 856 W/m² | - |
| 1777485553 | 32.78° C | 54% | 1011.7 hPa | 0 mm | - | 704 W/m² | - |
| 1777485253 | 32.22° C | 56% | 1011.9 hPa | 0 mm | - | 733 W/m² | - |
| 1777484952 | 32.78° C | 55% | 1012 hPa | 0 mm | - | 392 W/m² | - |
| 1777484652 | 32.22° C | 56% | 1012 hPa | 0 mm | - | 707 W/m² | - |
| 1777484353 | 32.78° C | 57% | 1012 hPa | 0 mm | - | 775 W/m² | - |
| 1777484053 | 32.22° C | 57% | 1012 hPa | 0 mm | - | 633 W/m² | - |
| 1777483753 | 32.22° C | 58% | 1012.2 hPa | 0 mm | - | 857 W/m² | - |
| 1777483453 | 32.22° C | 59% | 1012.2 hPa | 0 mm | - | 823 W/m² | - |
| 1777483152 | 32.22° C | 58% | 1012.2 hPa | 0 mm | - | 679 W/m² | - |
| 1777482852 | 31.67° C | 60% | 1012.4 hPa | 0 mm | - | 664 W/m² | - |
| 1777482553 | 31.67° C | 60% | 1012.2 hPa | 0 mm | - | 807 W/m² | - |
| 1777482253 | 31.67° C | 61% | 1012 hPa | 0 mm | - | 800 W/m² | - |
| 1777481952 | 31.67° C | 61% | 1012.3 hPa | 0 mm | - | 725 W/m² | - |
| 1777481653 | 31.67° C | 61% | 1012.3 hPa | 0 mm | - | 663 W/m² | - |
* Rain latest hour (hover to see other rain measurements)
** Current wind speed in m/s (hover to see current wind gust speed)